Time;durP1;ratioP1;P1;durP2;ratioP2;P2;SDS_P1;SDS_P2;PMS_P1;PMS_P2;Temp;Humidity;BMP_temperature;BMP_pressure;BME280_temperature;BME280_humidity;BME280_pressure;Samples;Min_cycle;Max_cycle;Signal;HPM_P1;HPM_P2
2021/07/16 00:00:51;;;;;;;15.3;9.9;;;;;;;20.08;100;98213.58;;;;
2021/07/16 00:10:51;;;;;;;12.1;8.2;;;;;;;19.95;100;98247.87;;;;
2021/07/16 00:20:51;;;;;;;11.6;8.1;;;;;;;19.95;100;98256.07;;;;
2021/07/16 00:30:51;;;;;;;10;8;;;;;;;19.9;100;98280.23;;;;
2021/07/16 00:40:51;;;;;;;13.7;8.8;;;;;;;19.69;100;98294.47;;;;
2021/07/16 00:50:52;;;;;;;11;7.3;;;;;;;19.63;100;98300.66;;;;
2021/07/16 01:00:51;;;;;;;9.9;7.3;;;;;;;19.52;100;98286.86;;;;
2021/07/16 01:10:51;;;;;;;12.5;7.7;;;;;;;19.42;100;98295.73;;;;
2021/07/16 01:20:51;;;;;;;15.2;10.3;;;;;;;19.27;100;98313.06;;;;
2021/07/16 01:30:53;;;;;;;17;9.1;;;;;;;19.3;100;98321.31;;;;
2021/07/16 01:40:51;;;;;;;15.6;8.4;;;;;;;19.4;100;98339.78;;;;
2021/07/16 01:50:51;;;;;;;16.6;8.9;;;;;;;19.34;100;98357.67;;;;
2021/07/16 02:20:52;;;;;;;21;6.9;;;;;;;19.2;100;98337.56;;;;
2021/07/16 02:30:52;;;;;;;11.7;7.4;;;;;;;19.17;100;98338.3;;;;
2021/07/16 02:40:51;;;;;;;12.9;5.6;;;;;;;19.03;100;98339.69;;;;
2021/07/16 02:50:51;;;;;;;9.4;5.5;;;;;;;18.94;100;98332.92;;;;
2021/07/16 03:00:51;;;;;;;9.2;4.4;;;;;;;19.05;100;98318.24;;;;
2021/07/16 03:10:52;;;;;;;6.9;3.4;;;;;;;18.98;100;98304.52;;;;
2021/07/16 03:20:51;;;;;;;6.9;4.1;;;;;;;18.88;100;98277.82;;;;
2021/07/16 03:30:51;;;;;;;6.8;4.2;;;;;;;18.84;100;98266.09;;;;
2021/07/16 03:40:54;;;;;;;10.1;4.6;;;;;;;18.77;100;98257.8;;;;
2021/07/16 03:50:51;;;;;;;9.1;5.3;;;;;;;18.82;100;98260.19;;;;
2021/07/16 04:00:51;;;;;;;10.5;6.1;;;;;;;19.05;100;98279.23;;;;
2021/07/16 04:10:51;;;;;;;9.8;5.5;;;;;;;19.23;100;98287.66;;;;
2021/07/16 04:20:51;;;;;;;10.5;7.2;;;;;;;19.48;100;98302.43;;;;
2021/07/16 04:30:51;;;;;;;8.5;6.6;;;;;;;19.64;100;98318.64;;;;
2021/07/16 04:40:51;;;;;;;9.2;6.8;;;;;;;19.93;100;98340.44;;;;
2021/07/16 04:50:52;;;;;;;15.8;7.5;;;;;;;20.2;100;98340.33;;;;
2021/07/16 05:00:52;;;;;;;12.2;6.9;;;;;;;20.4;100;98349.92;;;;
2021/07/16 05:10:52;;;;;;;10.7;6.3;;;;;;;20.57;100;98371.98;;;;
2021/07/16 05:20:52;;;;;;;13.1;9.5;;;;;;;20.72;100;98375.61;;;;
2021/07/16 05:30:52;;;;;;;14.5;9.4;;;;;;;20.8;100;98399.16;;;;
2021/07/16 05:40:53;;;;;;;19.5;11.6;;;;;;;20.9;100;98412.15;;;;
2021/07/16 05:50:53;;;;;;;12.8;10.3;;;;;;;21.07;100;98405.22;;;;
2021/07/16 06:00:55;;;;;;;15.2;11.2;;;;;;;21.23;100;98424.96;;;;
2021/07/16 06:10:54;;;;;;;12.4;8.4;;;;;;;21.24;100;98426.52;;;;
2021/07/16 06:20:54;;;;;;;10.7;8.1;;;;;;;21.29;100;98436.34;;;;
2021/07/16 06:30:55;;;;;;;9.3;8.3;;;;;;;21.52;100;98442.36;;;;
2021/07/16 06:40:55;;;;;;;12.5;9.1;;;;;;;22.07;100;98440.32;;;;
2021/07/16 06:50:55;;;;;;;14.4;10.2;;;;;;;22.31;100;98449.8;;;;
2021/07/16 07:00:56;;;;;;;16.3;12.1;;;;;;;22.52;100;98438.88;;;;
2021/07/16 07:10:57;;;;;;;11.8;10;;;;;;;23.41;100;98440.49;;;;
2021/07/16 07:20:57;;;;;;;15.2;12.2;;;;;;;23.71;100;98445.52;;;;
2021/07/16 07:30:58;;;;;;;13.8;9.2;;;;;;;24.28;100;98431.55;;;;
2021/07/16 07:40:59;;;;;;;14.2;10.1;;;;;;;24.46;100;98441.3;;;;
2021/07/16 07:50:59;;;;;;;15.3;10.1;;;;;;;24.59;100;98436.08;;;;
2021/07/16 08:01:00;;;;;;;20.2;12.2;;;;;;;24.76;100;98451.71;;;;
2021/07/16 08:11:01;;;;;;;19.9;15.1;;;;;;;25.4;100;98451.22;;;;
2021/07/16 08:21:02;;;;;;;17.2;12.3;;;;;;;25.6;100;98463.26;;;;
2021/07/16 08:31:03;;;;;;;14.3;10.6;;;;;;;26.09;100;98491.52;;;;
2021/07/16 08:41:04;;;;;;;24.2;11.6;;;;;;;25.41;100;98500.45;;;;
2021/07/16 08:51:05;;;;;;;21.2;13.7;;;;;;;25.46;100;98499.25;;;;
2021/07/16 09:01:06;;;;;;;21.2;18.5;;;;;;;25.61;100;98489.67;;;;
2021/07/16 09:11:07;;;;;;;29.3;20.9;;;;;;;26.1;100;98468.23;;;;
2021/07/16 09:21:08;;;;;;;24;16.8;;;;;;;26.3;100;98463.66;;;;
2021/07/16 09:31:09;;;;;;;30.1;17.9;;;;;;;26.5;100;98464.56;;;;
2021/07/16 09:41:10;;;;;;;20;17.2;;;;;;;26.77;100;98453.48;;;;
2021/07/16 09:51:11;;;;;;;23;17.5;;;;;;;26.81;100;98449.48;;;;
2021/07/16 10:01:12;;;;;;;26;16.9;;;;;;;26.8;100;98470.03;;;;
2021/07/16 10:11:18;;;;;;;29.5;21.2;;;;;;;26.23;100;98472.82;;;;
2021/07/16 10:21:15;;;;;;;30.7;20.1;;;;;;;26.95;100;98467.86;;;;
2021/07/16 10:31:16;;;;;;;25.2;18.7;;;;;;;27.25;100;98472.5;;;;
2021/07/16 10:41:17;;;;;;;25.1;19.4;;;;;;;27.56;100;98470.44;;;;
2021/07/16 10:51:24;;;;;;;23.9;18.9;;;;;;;28.19;100;98474.74;;;;
2021/07/16 11:11:21;;;;;;;26.1;19.1;;;;;;;28.57;100;98472.33;;;;
2021/07/16 11:21:22;;;;;;;25.1;22.4;;;;;;;28.49;100;98463.41;;;;
2021/07/16 11:31:23;;;;;;;20.4;18.1;;;;;;;28.51;100;98457.42;;;;
2021/07/16 11:41:24;;;;;;;19.4;16.1;;;;;;;29.08;100;98453.35;;;;
2021/07/16 11:51:26;;;;;;;29.9;18.6;;;;;;;28.67;100;98453.95;;;;
2021/07/16 12:01:29;;;;;;;21.9;19.2;;;;;;;29.07;100;98455.34;;;;
2021/07/16 12:11:28;;;;;;;19.2;17.1;;;;;;;29.43;100;98456.02;;;;
2021/07/16 12:21:30;;;;;;;19.8;15.8;;;;;;;29.99;100;98450.16;;;;
2021/07/16 12:31:33;;;;;;;18.8;15.8;;;;;;;29.95;99.35059;98446.73;;;;
2021/07/16 12:41:33;;;;;;;18.9;15.7;;;;;;;30.29;100;98429.44;;;;
2021/07/16 12:51:39;;;;;;;16.8;13.4;;;;;;;31.08;93.05273;98418.22;;;;
2021/07/16 13:01:36;;;;;;;20.4;16.5;;;;;;;30.78;98.60449;98402.89;;;;
2021/07/16 13:11:38;;;;;;;21.7;15.6;;;;;;;30.69;96.64941;98390.86;;;;
2021/07/16 13:21:40;;;;;;;18.9;15.6;;;;;;;30.09;100;98378.82;;;;
2021/07/16 13:31:42;;;;;;;17.4;14.6;;;;;;;30.57;98.52148;98386.09;;;;
2021/07/16 13:41:43;;;;;;;16.2;14;;;;;;;30.23;96.86816;98384.7;;;;
2021/07/16 13:51:44;;;;;;;17.3;13.7;;;;;;;29.75;100;98385.7;;;;
2021/07/16 14:01:46;;;;;;;16.1;14.3;;;;;;;30.55;100;98392.09;;;;
2021/07/16 14:11:47;;;;;;;15;12.5;;;;;;;31.03;90.79492;98399.31;;;;
2021/07/16 14:21:49;;;;;;;18.2;11.2;;;;;;;31.22;92.40918;98403.81;;;;
2021/07/16 14:31:50;;;;;;;18.9;11.9;;;;;;;31.2;92.71191;98395.15;;;;
2021/07/16 14:41:52;;;;;;;17.4;11.3;;;;;;;30.59;92.63379;98384.41;;;;
2021/07/16 14:51:54;;;;;;;16.2;10.4;;;;;;;31.4;85.62305;98375.34;;;;
2021/07/16 15:01:57;;;;;;;19.9;10.7;;;;;;;31.32;81.78516;98377.6;;;;
2021/07/16 15:11:57;;;;;;;12.8;9.5;;;;;;;33.04;75.35254;98379.02;;;;
2021/07/16 15:21:58;;;;;;;12.7;8.5;;;;;;;34.41;67.20703;98358.07;;;;
2021/07/16 15:32:00;;;;;;;9;6.5;;;;;;;35.99;61.53711;98370.04;;;;
2021/07/16 15:42:03;;;;;;;10.4;6.8;;;;;;;35.98;59.76074;98363.65;;;;
2021/07/16 15:52:05;;;;;;;54.9;47.8;;;;;;;35.33;62.12305;98354.28;;;;
2021/07/16 16:02:07;;;;;;;15.7;11.5;;;;;;;33.18;70.15723;98358.89;;;;
2021/07/16 16:12:09;;;;;;;48.1;38.1;;;;;;;32.22;79.02246;98354.39;;;;
2021/07/16 16:22:11;;;;;;;17.2;12.4;;;;;;;31.33;83.35742;98354.09;;;;
2021/07/16 16:32:15;;;;;;;13.7;9.3;;;;;;;30.32;87.81055;98357.03;;;;
2021/07/16 16:42:14;;;;;;;14.6;9.4;;;;;;;30.61;85.98047;98356.16;;;;
2021/07/16 16:52:16;;;;;;;16.3;10.8;;;;;;;30.28;88.27246;98342.45;;;;
2021/07/16 17:02:17;;;;;;;19.3;10.5;;;;;;;29.82;90.58008;98377.17;;;;
2021/07/16 17:12:18;;;;;;;15.6;11.7;;;;;;;28.94;92.13867;98377.57;;;;
2021/07/16 17:22:20;;;;;;;19.9;10.5;;;;;;;28.26;97.86328;98385.11;;;;
2021/07/16 17:32:21;;;;;;;12.2;9.7;;;;;;;27.99;100;98374.98;;;;
2021/07/16 17:42:22;;;;;;;27.1;21.3;;;;;;;27.81;100;98371.8;;;;
2021/07/16 17:52:23;;;;;;;13.9;10.7;;;;;;;28.17;100;98362.75;;;;
2021/07/16 18:02:24;;;;;;;24.8;20.8;;;;;;;28.19;99.20313;98368.64;;;;
2021/07/16 18:12:25;;;;;;;21.4;15.6;;;;;;;27.48;100;98370.11;;;;
2021/07/16 18:22:26;;;;;;;19.2;11.5;;;;;;;26.63;100;98366.02;;;;
2021/07/16 18:32:27;;;;;;;15.8;11.2;;;;;;;26.11;100;98390.45;;;;
2021/07/16 18:42:28;;;;;;;11.2;9.3;;;;;;;25.57;100;98400.59;;;;
2021/07/16 18:52:28;;;;;;;13.2;9.6;;;;;;;25.05;100;98416.47;;;;
2021/07/16 19:02:29;;;;;;;14.1;10;;;;;;;24.45;100;98419.64;;;;
2021/07/16 19:12:30;;;;;;;16.3;12.5;;;;;;;24.23;100;98431.95;;;;
2021/07/16 19:22:30;;;;;;;17.1;11.6;;;;;;;23.81;100;98452.19;;;;
2021/07/16 19:32:31;;;;;;;16.3;12.9;;;;;;;23.72;100;98457.31;;;;
2021/07/16 19:42:32;;;;;;;16.6;12.5;;;;;;;23.55;100;98451.47;;;;
2021/07/16 19:52:32;;;;;;;19.8;13.9;;;;;;;23.55;100;98445.17;;;;
2021/07/16 20:02:33;;;;;;;21.9;13.8;;;;;;;23.37;100;98409.42;;;;
2021/07/16 20:12:33;;;;;;;31.6;15.3;;;;;;;23.16;100;98425.95;;;;
2021/07/16 20:22:35;;;;;;;15.9;13.1;;;;;;;22.92;100;98430.29;;;;
2021/07/16 20:32:34;;;;;;;20.3;15.8;;;;;;;22.67;100;98425.95;;;;
2021/07/16 20:42:34;;;;;;;22;17.2;;;;;;;22.42;100;98448.64;;;;
2021/07/16 20:52:34;;;;;;;21.8;16.4;;;;;;;22.15;100;98455.63;;;;
2021/07/16 21:02:35;;;;;;;22.6;19.1;;;;;;;21.93;100;98453.98;;;;
2021/07/16 21:12:35;;;;;;;22.8;19.5;;;;;;;21.85;100;98472.34;;;;
2021/07/16 21:22:35;;;;;;;26.5;18;;;;;;;21.63;100;98470.64;;;;
2021/07/16 21:32:35;;;;;;;28.7;21.6;;;;;;;21.7;100;98472.63;;;;
2021/07/16 21:42:35;;;;;;;20.4;16.4;;;;;;;21.64;100;98488.68;;;;
2021/07/16 21:52:36;;;;;;;22.2;16.5;;;;;;;21.55;100;98499.2;;;;
2021/07/16 22:02:36;;;;;;;22.9;18.6;;;;;;;21.42;100;98500.66;;;;
2021/07/16 22:12:36;;;;;;;21;18.1;;;;;;;21.43;100;98505.78;;;;
2021/07/16 22:22:36;;;;;;;25.7;16.2;;;;;;;21.36;100;98497.5;;;;
2021/07/16 22:32:36;;;;;;;28.7;24.1;;;;;;;21.36;100;98493.97;;;;
2021/07/16 22:42:37;;;;;;;20.3;16;;;;;;;21.53;100;98496.05;;;;
2021/07/16 22:52:37;;;;;;;21.5;18.7;;;;;;;21.49;100;98476.83;;;;
2021/07/16 23:02:37;;;;;;;20;16.4;;;;;;;21.72;100;98470.31;;;;
2021/07/16 23:12:37;;;;;;;19.1;16.8;;;;;;;21.64;100;98449.48;;;;
2021/07/16 23:22:37;;;;;;;22.9;16.4;;;;;;;21.56;100;98429.45;;;;
2021/07/16 23:32:37;;;;;;;24.9;16.6;;;;;;;21.55;100;98436.13;;;;
2021/07/16 23:42:40;;;;;;;12.7;10.8;;;;;;;21.41;100;98427.82;;;;
2021/07/16 23:52:38;;;;;;;13.9;10.9;;;;;;;21.22;100;98426.13;;;;
